createdAt,value
2018-09-12T00:01:01.709Z,99.90
2018-09-12T00:03:29.885Z,99.90
2018-09-12T00:05:58.076Z,99.90
2018-09-12T00:08:26.237Z,99.90
2018-09-12T00:10:54.433Z,99.90
2018-09-12T00:13:22.652Z,99.90
2018-09-12T00:15:51.009Z,99.90
2018-09-12T00:18:19.235Z,99.90
2018-09-12T00:20:47.432Z,99.90
2018-09-12T00:23:15.660Z,99.90
2018-09-12T00:25:43.845Z,99.90
2018-09-12T00:28:12.517Z,99.90
2018-09-12T00:30:40.960Z,99.90
2018-09-12T00:33:09.340Z,99.90
2018-09-12T00:35:37.600Z,99.90
2018-09-12T00:38:05.812Z,99.90
2018-09-12T00:40:33.988Z,99.90
2018-09-12T00:43:02.216Z,99.90
2018-09-12T00:45:30.477Z,99.90
2018-09-12T00:47:58.712Z,99.90
2018-09-12T00:50:26.875Z,99.90
2018-09-12T00:52:55.068Z,99.90
2018-09-12T00:55:23.280Z,99.90
2018-09-12T00:57:51.519Z,99.90
2018-09-12T01:00:19.705Z,99.90
2018-09-12T01:02:47.864Z,99.90
2018-09-12T01:05:16.155Z,99.90
2018-09-12T01:07:44.324Z,99.90
2018-09-12T01:10:12.517Z,99.90
2018-09-12T01:12:40.721Z,99.90
2018-09-12T01:15:08.899Z,99.90
2018-09-12T01:17:37.059Z,99.90
2018-09-12T01:20:05.266Z,99.90
2018-09-12T01:22:33.444Z,99.90
2018-09-12T01:25:01.633Z,99.90
2018-09-12T01:27:29.805Z,99.90
2018-09-12T01:29:57.991Z,99.90
2018-09-12T01:32:26.174Z,99.90
2018-09-12T01:34:54.598Z,99.90
2018-09-12T01:37:22.780Z,99.90
2018-09-12T01:39:50.969Z,99.90
2018-09-12T01:42:19.144Z,99.90
2018-09-12T01:44:47.336Z,99.90
2018-09-12T01:47:15.588Z,99.90
2018-09-12T01:49:43.773Z,99.90
2018-09-12T01:52:12.023Z,99.90
2018-09-12T01:54:40.713Z,99.90
2018-09-12T01:57:08.900Z,99.90
2018-09-12T01:59:37.081Z,99.90
2018-09-12T02:02:05.284Z,99.90
2018-09-12T02:04:33.456Z,99.90
2018-09-12T02:07:01.644Z,99.90
2018-09-12T02:09:29.816Z,99.90
2018-09-12T02:11:58.129Z,99.90
2018-09-12T02:14:26.305Z,99.90
2018-09-12T02:16:54.501Z,99.90
2018-09-12T02:19:22.670Z,99.90
2018-09-12T02:21:50.858Z,99.90
2018-09-12T02:24:19.032Z,99.90
2018-09-12T02:26:47.244Z,99.90
2018-09-12T02:29:15.412Z,99.90
2018-09-12T02:31:43.616Z,99.90
2018-09-12T02:34:11.793Z,99.90
2018-09-12T02:36:40.017Z,99.90
2018-09-12T02:39:08.911Z,99.90
2018-09-12T02:41:37.215Z,99.90
2018-09-12T02:44:05.551Z,99.90
2018-09-12T02:46:34.182Z,99.90
2018-09-12T02:49:02.374Z,99.90
2018-09-12T02:51:30.640Z,99.90
2018-09-12T02:53:58.946Z,99.90
2018-09-12T02:56:27.135Z,99.90
2018-09-12T02:58:55.404Z,99.90
2018-09-12T03:01:23.716Z,99.90
2018-09-12T03:03:51.905Z,99.90
2018-09-12T03:06:20.114Z,99.90
2018-09-12T03:11:27.516Z,99.90
2018-09-12T03:13:55.728Z,99.90
2018-09-12T03:16:23.985Z,99.90
2018-09-12T03:18:52.258Z,99.90
2018-09-12T03:21:20.702Z,99.90
2018-09-12T03:23:49.287Z,99.90
2018-09-12T03:26:17.680Z,99.90
2018-09-12T03:28:46.165Z,99.90
2018-09-12T03:31:14.417Z,99.90
2018-09-12T03:33:42.661Z,99.90
2018-09-12T03:36:10.860Z,99.90
2018-09-12T03:38:39.040Z,99.90
2018-09-12T03:41:07.252Z,99.90
2018-09-12T03:43:35.593Z,99.90
2018-09-12T03:46:03.845Z,99.90
2018-09-12T03:48:32.632Z,99.90
2018-09-12T03:51:00.896Z,99.90
2018-09-12T03:53:29.104Z,99.90
2018-09-12T03:55:57.304Z,99.90
2018-09-12T03:58:25.570Z,99.90
2018-09-12T04:00:53.761Z,99.90
2018-09-12T04:03:21.982Z,99.90
2018-09-12T04:05:50.161Z,99.90
2018-09-12T04:08:18.477Z,99.90
2018-09-12T04:10:46.648Z,99.90
2018-09-12T04:13:14.914Z,99.90
2018-09-12T04:15:43.096Z,99.90
2018-09-12T04:18:11.302Z,99.90
2018-09-12T04:20:39.531Z,99.90
2018-09-12T04:23:07.973Z,99.90
2018-09-12T04:25:36.177Z,99.90
2018-09-12T04:28:04.368Z,99.90
2018-09-12T04:30:32.574Z,99.90
2018-09-12T04:33:00.756Z,99.90
2018-09-12T04:35:28.948Z,99.90
2018-09-12T04:37:57.122Z,99.90
2018-09-12T04:40:25.426Z,99.90
2018-09-12T04:42:53.787Z,99.90
2018-09-12T04:45:22.301Z,99.90
2018-09-12T04:47:50.792Z,99.90
2018-09-12T04:50:18.962Z,99.90
2018-09-12T04:52:47.170Z,99.90
2018-09-12T04:55:15.338Z,99.90
2018-09-12T04:57:43.551Z,99.90
2018-09-12T05:00:12.386Z,99.90
2018-09-12T05:02:40.727Z,99.90
2018-09-12T05:05:08.908Z,99.90
2018-09-12T05:07:37.091Z,99.90
2018-09-12T05:10:05.503Z,99.90
2018-09-12T05:12:33.704Z,99.90
2018-09-12T05:15:01.881Z,99.90
2018-09-12T05:17:30.540Z,99.90
2018-09-12T05:19:58.715Z,99.90
2018-09-12T05:22:26.918Z,99.90
2018-09-12T05:24:55.115Z,99.90
2018-09-12T05:27:23.683Z,99.90
2018-09-12T05:29:52.293Z,99.90
2018-09-12T05:32:20.766Z,99.90
2018-09-12T05:34:49.017Z,99.90
2018-09-12T05:37:17.317Z,99.90
2018-09-12T05:39:45.491Z,99.90
2018-09-12T05:42:13.825Z,99.90
2018-09-12T05:44:42.000Z,99.90
2018-09-12T05:47:10.208Z,99.90
2018-09-12T05:49:38.422Z,99.90
2018-09-12T05:52:06.648Z,99.90
2018-09-12T05:54:35.081Z,99.90
2018-09-12T05:57:03.257Z,99.90
2018-09-12T05:59:31.540Z,99.90
2018-09-12T06:01:59.724Z,99.90
2018-09-12T06:04:28.003Z,99.90
2018-09-12T06:06:56.245Z,99.90
2018-09-12T06:09:24.462Z,99.90
2018-09-12T06:11:52.643Z,99.90
2018-09-12T06:14:20.865Z,99.90
2018-09-12T06:16:49.103Z,99.90
2018-09-12T06:19:17.334Z,99.90
2018-09-12T06:21:45.550Z,99.90
2018-09-12T06:24:13.774Z,99.90
2018-09-12T06:26:42.164Z,99.90
2018-09-12T06:29:10.698Z,99.90
2018-09-12T06:31:38.940Z,99.90
2018-09-12T06:34:07.179Z,99.90
2018-09-12T06:36:35.710Z,99.90
2018-09-12T06:39:05.551Z,99.90
2018-09-12T06:41:33.760Z,99.90
2018-09-12T06:44:02.034Z,99.90
2018-09-12T06:46:30.222Z,99.90
2018-09-12T06:48:58.453Z,99.90
2018-09-12T06:51:26.734Z,99.90
2018-09-12T06:53:54.963Z,99.90
2018-09-12T06:56:23.149Z,99.90
2018-09-12T06:58:51.348Z,99.90
2018-09-12T07:01:19.541Z,99.90
2018-09-12T07:03:48.108Z,99.90
2018-09-12T07:06:16.409Z,99.90
2018-09-12T07:08:44.619Z,99.90
2018-09-12T07:11:12.793Z,99.90
2018-09-12T07:13:41.009Z,99.90
2018-09-12T07:16:09.793Z,99.90
2018-09-12T07:18:38.004Z,99.90
2018-09-12T07:21:06.433Z,99.90
2018-09-12T07:23:34.641Z,99.90
2018-09-12T07:26:02.960Z,99.90
2018-09-12T07:28:31.144Z,99.90
2018-09-12T07:30:59.369Z,99.90
2018-09-12T07:33:27.566Z,99.90
2018-09-12T07:35:55.793Z,99.90
2018-09-12T07:38:24.004Z,99.90
2018-09-12T07:40:52.219Z,99.90
2018-09-12T07:43:20.419Z,99.90
2018-09-12T07:45:48.625Z,99.90
2018-09-12T07:48:16.845Z,99.90
2018-09-12T07:50:48.672Z,99.90
2018-09-12T07:53:17.433Z,99.90
2018-09-12T07:55:45.623Z,99.90
2018-09-12T07:58:14.724Z,99.90
2018-09-12T08:00:43.378Z,99.90
2018-09-12T08:03:11.549Z,99.90
2018-09-12T08:05:39.736Z,99.90
2018-09-12T08:08:07.973Z,99.90
2018-09-12T08:10:36.162Z,99.90
2018-09-12T08:13:04.689Z,99.90
2018-09-12T08:15:32.989Z,99.90
2018-09-12T08:18:01.329Z,99.90
2018-09-12T08:20:29.541Z,99.90
2018-09-12T08:22:57.736Z,99.90
2018-09-12T08:25:25.929Z,99.90
2018-09-12T08:27:54.200Z,99.90
2018-09-12T08:30:22.380Z,99.90
2018-09-12T08:32:50.754Z,99.90
2018-09-12T08:35:19.006Z,99.90
2018-09-12T08:37:47.213Z,99.90
2018-09-12T08:40:15.576Z,99.90
2018-09-12T08:42:44.449Z,99.90
2018-09-12T08:45:12.635Z,99.90
2018-09-12T08:47:41.077Z,99.90
2018-09-12T08:50:09.525Z,99.90
2018-09-12T08:52:37.810Z,99.90
2018-09-12T08:55:06.130Z,99.90
2018-09-12T08:57:34.537Z,99.90
2018-09-12T09:00:02.721Z,99.90
2018-09-12T09:02:30.944Z,99.90
2018-09-12T09:04:59.133Z,99.90
2018-09-12T09:07:27.392Z,99.90
2018-09-12T09:09:55.674Z,99.90
2018-09-12T09:12:24.285Z,99.90
2018-09-12T09:14:52.834Z,99.90
2018-09-12T09:17:21.284Z,99.90
2018-09-12T09:19:49.679Z,99.90
2018-09-12T09:22:18.173Z,99.90
2018-09-12T09:24:46.349Z,99.90
2018-09-12T09:27:14.557Z,99.90
2018-09-12T09:29:42.738Z,99.90
2018-09-12T09:32:10.981Z,99.90
2018-09-12T09:34:39.169Z,99.90
2018-09-12T09:37:07.404Z,99.90
2018-09-12T09:39:35.651Z,99.30
2018-09-12T09:42:03.847Z,99.00
2018-09-12T09:44:32.113Z,99.00
2018-09-12T09:47:00.581Z,98.80
2018-09-12T09:49:28.825Z,98.80
2018-09-12T09:51:57.000Z,98.60
2018-09-12T09:54:25.203Z,98.20
2018-09-12T09:56:53.433Z,97.80
2018-09-12T09:59:21.632Z,97.90
2018-09-12T10:01:55.210Z,98.00
2018-09-12T10:04:27.756Z,98.20
2018-09-12T10:06:58.396Z,98.30
2018-09-12T10:09:30.881Z,98.40
2018-09-12T10:11:59.818Z,98.10
2018-09-12T10:14:27.957Z,98.30
2018-09-12T10:16:56.145Z,98.20
2018-09-12T10:19:24.684Z,98.20
2018-09-12T10:21:53.206Z,98.50
2018-09-12T10:24:21.507Z,98.30
2018-09-12T10:26:49.652Z,98.20
2018-09-12T10:29:17.921Z,97.80
2018-09-12T10:31:46.377Z,97.20
2018-09-12T10:34:14.580Z,96.50
2018-09-12T10:36:43.122Z,96.10
2018-09-12T10:39:13.153Z,95.80
2018-09-12T10:41:41.857Z,96.00
2018-09-12T10:44:10.349Z,96.00
2018-09-12T10:46:38.578Z,96.00
2018-09-12T10:49:07.128Z,95.80
2018-09-12T10:51:35.376Z,95.60
2018-09-12T10:54:03.638Z,95.30
2018-09-12T10:56:31.953Z,94.60
2018-09-12T10:59:00.210Z,94.40
2018-09-12T11:01:28.348Z,94.20
2018-09-12T11:03:56.564Z,94.20
2018-09-12T11:06:24.818Z,94.20
2018-09-12T11:08:53.351Z,94.10
2018-09-12T11:11:21.582Z,94.20
2018-09-12T11:13:49.982Z,93.80
2018-09-12T11:16:18.166Z,93.70
2018-09-12T11:18:46.444Z,93.60
2018-09-12T11:21:14.669Z,92.50
2018-09-12T11:23:42.841Z,92.20
2018-09-12T11:26:11.053Z,91.30
2018-09-12T11:28:39.549Z,90.90
2018-09-12T11:31:07.912Z,91.20
2018-09-12T11:33:36.089Z,91.50
2018-09-12T11:36:04.296Z,90.90
2018-09-12T11:38:32.490Z,90.60
2018-09-12T11:41:00.723Z,89.50
2018-09-12T11:43:28.981Z,90.50
2018-09-12T11:45:57.357Z,91.40
2018-09-12T11:48:25.549Z,91.30
2018-09-12T11:50:53.790Z,90.40
2018-09-12T11:53:22.009Z,91.00
2018-09-12T11:55:50.403Z,90.80
2018-09-12T11:58:18.588Z,90.90
2018-09-12T12:00:46.781Z,90.60
2018-09-12T12:03:14.954Z,91.60
2018-09-12T12:05:43.159Z,92.10
2018-09-12T12:08:11.426Z,92.60
2018-09-12T12:10:39.856Z,92.40
2018-09-12T12:13:08.034Z,92.20
2018-09-12T12:15:36.326Z,92.70
2018-09-12T12:18:04.603Z,92.00
2018-09-12T12:20:32.910Z,92.50
2018-09-12T12:23:01.111Z,92.80
2018-09-12T12:25:29.655Z,92.60
2018-09-12T12:27:57.921Z,92.40
2018-09-12T12:30:26.119Z,92.30
2018-09-12T12:32:54.305Z,90.50
2018-09-12T12:35:22.640Z,90.10
2018-09-12T12:37:51.654Z,90.90
2018-09-12T12:40:19.911Z,90.60
2018-09-12T12:42:48.148Z,90.70
2018-09-12T12:45:16.611Z,91.10
2018-09-12T12:47:45.877Z,90.70
2018-09-12T12:50:14.106Z,90.70
2018-09-12T12:52:42.283Z,89.70
2018-09-12T12:55:10.533Z,85.40
2018-09-12T12:57:41.034Z,86.70
2018-09-12T13:00:09.824Z,88.20
2018-09-12T13:02:38.013Z,89.60
2018-09-12T13:05:07.917Z,89.60
2018-09-12T13:07:36.235Z,87.70
2018-09-12T13:10:06.881Z,86.70
2018-09-12T13:12:35.089Z,86.10
2018-09-12T13:15:03.292Z,84.50
2018-09-12T13:17:31.656Z,83.90
2018-09-12T13:20:00.068Z,85.00
2018-09-12T13:22:28.557Z,85.70
2018-09-12T13:24:56.798Z,83.40
2018-09-12T13:27:25.075Z,82.30
2018-09-12T13:29:53.164Z,78.80
2018-09-12T13:32:21.393Z,78.50
2018-09-12T13:34:49.726Z,77.70
2018-09-12T13:37:18.484Z,77.30
2018-09-12T13:39:46.729Z,76.70
2018-09-12T13:42:15.007Z,75.40
2018-09-12T13:44:43.670Z,75.10
2018-09-12T13:47:12.200Z,74.90
2018-09-12T13:49:40.520Z,73.20
2018-09-12T13:52:08.716Z,74.80
2018-09-12T13:54:36.957Z,76.50
2018-09-12T13:57:05.116Z,76.20
2018-09-12T13:59:33.510Z,76.40
2018-09-12T14:02:02.090Z,76.00
2018-09-12T14:04:30.285Z,79.20
2018-09-12T14:06:58.654Z,83.70
2018-09-12T14:09:27.091Z,87.00
2018-09-12T14:11:55.406Z,88.90
2018-09-12T14:14:23.599Z,90.40
2018-09-12T14:16:51.852Z,91.10
2018-09-12T14:19:20.294Z,91.80
2018-09-12T14:21:53.337Z,92.40
2018-09-12T14:24:21.515Z,92.80
2018-09-12T14:26:49.740Z,93.00
2018-09-12T14:29:18.056Z,96.00
2018-09-12T14:31:47.202Z,97.10
2018-09-12T14:34:15.549Z,98.10
2018-09-12T14:36:43.757Z,99.20
2018-09-12T14:39:12.098Z,99.90
2018-09-12T14:41:40.493Z,99.90
2018-09-12T14:44:08.683Z,99.90
2018-09-12T14:46:36.918Z,99.90
2018-09-12T14:49:05.556Z,99.90
2018-09-12T14:51:33.747Z,99.90
2018-09-12T14:54:01.941Z,99.90
2018-09-12T14:56:30.140Z,99.90
2018-09-12T14:58:58.343Z,99.90
2018-09-12T15:01:26.537Z,99.90
2018-09-12T15:03:55.052Z,99.90
2018-09-12T15:06:23.462Z,99.90
2018-09-12T15:08:51.672Z,99.90
2018-09-12T15:11:19.913Z,99.90
2018-09-12T15:13:49.085Z,99.90
2018-09-12T15:16:24.463Z,99.90
2018-09-12T15:18:59.085Z,99.90
2018-09-12T15:21:36.159Z,99.90
2018-09-12T15:24:09.597Z,99.90
2018-09-12T15:26:39.290Z,99.90
2018-09-12T15:29:07.784Z,99.90
2018-09-12T15:31:35.983Z,99.90
2018-09-12T15:34:04.203Z,99.90
2018-09-12T15:36:32.452Z,99.90
2018-09-12T15:39:00.849Z,99.90
2018-09-12T15:41:29.113Z,99.90
2018-09-12T15:43:57.231Z,99.90
2018-09-12T15:46:26.116Z,99.90
2018-09-12T15:48:54.558Z,99.90
2018-09-12T15:51:22.749Z,99.90
2018-09-12T15:53:50.959Z,99.90
2018-09-12T15:56:19.176Z,99.90
2018-09-12T15:58:47.744Z,99.90
2018-09-12T16:01:16.153Z,99.90
2018-09-12T16:03:44.629Z,99.90
2018-09-12T16:06:12.813Z,99.90
2018-09-12T16:08:41.018Z,99.90
2018-09-12T16:11:10.292Z,99.90
2018-09-12T16:13:38.740Z,99.90
2018-09-12T16:16:07.057Z,99.90
2018-09-12T16:18:36.541Z,99.90
2018-09-12T16:21:04.812Z,99.90
2018-09-12T16:23:33.812Z,99.90
2018-09-12T16:26:02.195Z,99.90
2018-09-12T16:28:30.425Z,99.90
2018-09-12T16:30:59.491Z,99.90
2018-09-12T16:33:27.771Z,99.90
2018-09-12T16:35:56.117Z,99.90
2018-09-12T16:38:24.317Z,99.90
2018-09-12T16:40:53.452Z,99.90
2018-09-12T16:43:22.306Z,99.90
2018-09-12T16:45:50.516Z,99.90
2018-09-12T16:48:18.697Z,99.90
2018-09-12T16:50:46.951Z,99.90
2018-09-12T16:53:15.073Z,99.90
2018-09-12T16:55:43.245Z,99.90
2018-09-12T16:58:12.482Z,99.90
2018-09-12T17:00:40.665Z,99.90
2018-09-12T17:03:09.504Z,99.90
2018-09-12T17:05:37.776Z,99.90
2018-09-12T17:08:06.086Z,99.90
2018-09-12T17:10:34.823Z,99.90
2018-09-12T17:13:03.313Z,99.90
2018-09-12T17:15:31.520Z,99.90
2018-09-12T17:18:00.464Z,99.90
2018-09-12T17:20:28.695Z,99.90
2018-09-12T17:22:56.987Z,99.90
2018-09-12T17:25:25.177Z,99.90
2018-09-12T17:27:53.765Z,99.90
2018-09-12T17:30:21.934Z,99.90
2018-09-12T17:32:50.287Z,99.90
2018-09-12T17:35:18.501Z,99.90
2018-09-12T17:37:46.769Z,99.90
2018-09-12T17:40:14.945Z,99.90
2018-09-12T17:42:43.140Z,99.90
2018-09-12T17:45:11.316Z,99.90
2018-09-12T17:47:39.490Z,99.90
2018-09-12T17:50:07.683Z,99.90
2018-09-12T17:52:35.872Z,99.90
2018-09-12T17:55:04.241Z,99.90
2018-09-12T17:57:32.593Z,99.90
2018-09-12T18:00:00.937Z,99.90
2018-09-12T18:02:29.123Z,99.90
2018-09-12T18:04:57.341Z,99.90
2018-09-12T18:07:25.529Z,99.90
2018-09-12T18:09:53.853Z,99.90
2018-09-12T18:12:22.312Z,99.90
2018-09-12T18:14:50.523Z,99.90
2018-09-12T18:17:18.898Z,99.90
2018-09-12T18:19:47.124Z,99.90
2018-09-12T18:22:15.333Z,99.90
2018-09-12T18:24:45.268Z,99.90
2018-09-12T18:27:15.982Z,99.90
2018-09-12T18:29:45.357Z,99.90
2018-09-12T18:32:14.877Z,99.90
2018-09-12T18:34:44.069Z,99.90
2018-09-12T18:37:13.192Z,99.90
2018-09-12T18:39:43.106Z,99.90
2018-09-12T18:42:12.077Z,99.90
2018-09-12T18:44:41.343Z,99.90
2018-09-12T18:47:10.899Z,99.90
2018-09-12T18:49:39.145Z,99.90
2018-09-12T18:52:07.340Z,99.90
2018-09-12T18:54:36.198Z,99.90
2018-09-12T18:57:05.356Z,99.90
2018-09-12T18:59:34.560Z,99.90
2018-09-12T19:02:05.131Z,99.90
2018-09-12T19:04:33.392Z,99.90
2018-09-12T19:07:02.577Z,99.90
2018-09-12T19:09:30.848Z,99.90
2018-09-12T19:11:59.040Z,99.90
2018-09-12T19:14:27.237Z,99.90
2018-09-12T19:16:55.422Z,99.90
2018-09-12T19:19:23.640Z,99.90
2018-09-12T19:21:51.871Z,99.90
2018-09-12T19:24:20.237Z,99.90
2018-09-12T19:26:48.452Z,99.90
2018-09-12T19:29:16.705Z,99.90
2018-09-12T19:31:44.883Z,99.90
2018-09-12T19:34:13.230Z,99.90
2018-09-12T19:36:41.421Z,99.90
2018-09-12T19:39:10.161Z,99.90
2018-09-12T19:41:39.204Z,99.90
2018-09-12T19:44:07.420Z,99.90
2018-09-12T19:46:35.673Z,99.90
2018-09-12T19:49:04.353Z,99.90
2018-09-12T19:51:32.687Z,99.90
2018-09-12T19:54:00.910Z,99.90
2018-09-12T19:56:29.098Z,99.90
2018-09-12T19:58:57.311Z,99.90
2018-09-12T20:01:25.487Z,99.90
2018-09-12T20:03:53.956Z,99.90
2018-09-12T20:06:22.244Z,99.90
2018-09-12T20:08:50.515Z,99.90
2018-09-12T20:11:18.868Z,99.90
2018-09-12T20:13:47.087Z,99.90
2018-09-12T20:16:15.321Z,99.90
2018-09-12T20:18:43.721Z,99.90
2018-09-12T20:21:11.936Z,99.90
2018-09-12T20:23:40.437Z,99.90
2018-09-12T20:26:08.645Z,99.90
2018-09-12T20:28:40.936Z,99.90
2018-09-12T20:31:09.496Z,99.90
2018-09-12T20:33:37.936Z,99.90
2018-09-12T20:36:06.939Z,99.90
2018-09-12T20:38:36.583Z,99.90
2018-09-12T20:41:05.107Z,99.90
2018-09-12T20:43:33.555Z,99.90
2018-09-12T20:46:02.863Z,99.90
2018-09-12T20:48:31.100Z,99.90
2018-09-12T20:50:59.504Z,99.90
2018-09-12T20:53:27.860Z,99.90
2018-09-12T20:55:56.081Z,99.90
2018-09-12T20:58:24.261Z,99.90
2018-09-12T21:00:52.474Z,99.90
2018-09-12T21:03:20.929Z,99.90
2018-09-12T21:05:49.157Z,99.90
2018-09-12T21:08:17.396Z,99.90
2018-09-12T21:10:45.707Z,99.90
2018-09-12T21:13:13.821Z,99.90
2018-09-12T21:15:46.621Z,99.90
2018-09-12T21:18:15.020Z,99.90
2018-09-12T21:20:43.128Z,99.90
2018-09-12T21:23:11.307Z,99.90
2018-09-12T21:25:40.645Z,99.90
2018-09-12T21:28:08.918Z,99.90
2018-09-12T21:30:37.120Z,99.90
2018-09-12T21:33:05.410Z,99.90
2018-09-12T21:35:33.624Z,99.90
2018-09-12T21:38:01.928Z,99.90
2018-09-12T21:40:30.135Z,99.90
2018-09-12T21:42:58.321Z,99.90
2018-09-12T21:45:26.507Z,99.90
2018-09-12T21:47:55.295Z,99.90
2018-09-12T21:50:23.597Z,99.90
2018-09-12T21:52:51.900Z,99.90
2018-09-12T21:55:20.080Z,99.90
2018-09-12T21:57:48.280Z,99.90
2018-09-12T22:00:16.487Z,99.90
2018-09-12T22:02:44.756Z,99.90
2018-09-12T22:05:12.957Z,99.90
2018-09-12T22:07:41.165Z,99.90
2018-09-12T22:10:09.733Z,99.90
2018-09-12T22:12:38.138Z,99.90
2018-09-12T22:15:06.328Z,99.90
2018-09-12T22:17:34.540Z,99.90
2018-09-12T22:20:02.736Z,99.90
2018-09-12T22:22:30.971Z,99.90
2018-09-12T22:24:59.149Z,99.90
2018-09-12T22:27:27.377Z,99.90
2018-09-12T22:29:55.567Z,99.90
2018-09-12T22:32:23.772Z,99.90
2018-09-12T22:34:51.968Z,99.90
2018-09-12T22:37:20.185Z,99.90
2018-09-12T22:39:48.360Z,99.90
2018-09-12T22:42:16.601Z,99.90
2018-09-12T22:44:44.781Z,99.90
2018-09-12T22:47:12.989Z,99.90
2018-09-12T22:49:41.159Z,99.90
2018-09-12T22:52:09.417Z,99.90
2018-09-12T22:54:37.617Z,99.90
2018-09-12T22:57:05.929Z,99.90
2018-09-12T22:59:34.104Z,99.90
2018-09-12T23:02:02.300Z,99.90
2018-09-12T23:11:27.512Z,99.90
2018-09-12T23:13:55.734Z,99.90
2018-09-12T23:16:23.945Z,99.90
2018-09-12T23:18:52.149Z,99.90
2018-09-12T23:21:20.377Z,99.90
2018-09-12T23:23:48.576Z,99.90
2018-09-12T23:26:16.795Z,99.90
2018-09-12T23:28:45.061Z,99.90
2018-09-12T23:31:13.242Z,99.90
2018-09-12T23:33:41.450Z,99.90
2018-09-12T23:36:09.620Z,99.90
2018-09-12T23:38:37.856Z,99.90
2018-09-12T23:41:06.241Z,99.90
2018-09-12T23:43:34.520Z,99.90
2018-09-12T23:46:02.715Z,99.90
2018-09-12T23:48:30.941Z,99.90
2018-09-12T23:50:59.117Z,99.90
2018-09-12T23:53:27.308Z,99.90
2018-09-12T23:55:55.482Z,99.90
2018-09-12T23:58:23.712Z,99.90
